Waterloo, Iowa
Current Conditions -  °F | °C
As of 2:54 AM on Thursday 23 Oct 2014 (Local Time) from KALO Reporting Station
Overcast Overcast  
Wind Chill: 52°   Ceiling: 4400
Heat Index: 52°   Visibility: 10mi
Dew Point: 41°   Wind: 8mph
Humidity: 66%   Direction: 170°S
Pressure: 30.1"   Gusts: NA
Location:  42.49°N, 92.34°W
Report Text: KALO 230754Z 17007KT 10SM BKN044 OVC070 11/05 A3010 RMK AO2 SLP194 T01110050
Loading
Personal Weather Stations






























Interactive Weather Map New forecast layout! Learn more

10-Day Weather Forecast

Advertisements
Track Severe Weather on mobile